sensor_id;sensor_type;location;lat;lon;timestamp;pressure;altitude;pressure_sealevel;temperature
62845;BMP280;48929;47.910;20.390;2023-03-14T00:00:38;98821.50;;;4.09
62845;BMP280;48929;47.910;20.390;2023-03-14T00:03:12;98817.88;;;4.05
62845;BMP280;48929;47.910;20.390;2023-03-14T00:05:53;98828.44;;;4.14
62845;BMP280;48929;47.910;20.390;2023-03-14T00:08:51;98828.22;;;4.15
62845;BMP280;48929;47.910;20.390;2023-03-14T00:11:38;98831.81;;;4.24
62845;BMP280;48929;47.910;20.390;2023-03-14T00:14:29;98791.16;;;4.08
62845;BMP280;48929;47.910;20.390;2023-03-14T00:17:31;98808.88;;;4.24
62845;BMP280;48929;47.910;20.390;2023-03-14T00:20:03;98808.63;;;4.26
62845;BMP280;48929;47.910;20.390;2023-03-14T00:22:47;98818.22;;;4.41
62845;BMP280;48929;47.910;20.390;2023-03-14T00:25:21;98781.25;;;4.16
62845;BMP280;48929;47.910;20.390;2023-03-14T00:28:16;98804.38;;;4.32
62845;BMP280;48929;47.910;20.390;2023-03-14T00:31:22;98801.53;;;4.28
62845;BMP280;48929;47.910;20.390;2023-03-14T00:34:17;98774.38;;;4.12
62845;BMP280;48929;47.910;20.390;2023-03-14T00:36:59;98791.41;;;4.38
62845;BMP280;48929;47.910;20.390;2023-03-14T00:39:50;98795.81;;;4.48
62845;BMP280;48929;47.910;20.390;2023-03-14T00:42:41;98782.22;;;4.42
62845;BMP280;48929;47.910;20.390;2023-03-14T00:45:34;98735.09;;;4.18
62845;BMP280;48929;47.910;20.390;2023-03-14T00:48:37;98770.22;;;4.38
62845;BMP280;48929;47.910;20.390;2023-03-14T00:51:48;98753.66;;;4.40
62845;BMP280;48929;47.910;20.390;2023-03-14T00:54:51;98709.22;;;4.31
62845;BMP280;48929;47.910;20.390;2023-03-14T00:57:57;98705.22;;;4.45
62845;BMP280;48929;47.910;20.390;2023-03-14T01:00:42;98705.03;;;4.57
62845;BMP280;48929;47.910;20.390;2023-03-14T01:03:22;98706.91;;;4.67
62845;BMP280;48929;47.910;20.390;2023-03-14T01:06:18;98720.50;;;4.82
62845;BMP280;48929;47.910;20.390;2023-03-14T01:09:30;98701.81;;;4.72
62845;BMP280;48929;47.910;20.390;2023-03-14T01:12:45;98717.19;;;4.82
62845;BMP280;48929;47.910;20.390;2023-03-14T01:19:12;98731.78;;;4.96
62845;BMP280;48929;47.910;20.390;2023-03-14T01:21:48;98731.03;;;4.96
62845;BMP280;48929;47.910;20.390;2023-03-14T01:24:48;98692.38;;;4.72
62845;BMP280;48929;47.910;20.390;2023-03-14T01:27:42;98720.28;;;4.84
62845;BMP280;48929;47.910;20.390;2023-03-14T01:31:11;98711.81;;;4.78
62845;BMP280;48929;47.910;20.390;2023-03-14T01:34:14;98706.16;;;4.66
62845;BMP280;48929;47.910;20.390;2023-03-14T01:36:55;98720.47;;;4.72
62845;BMP280;48929;47.910;20.390;2023-03-14T01:39:40;98728.38;;;4.76
62845;BMP280;48929;47.910;20.390;2023-03-14T01:42:27;98703.59;;;4.71
62845;BMP280;48929;47.910;20.390;2023-03-14T01:49:45;98691.59;;;4.67
62845;BMP280;48929;47.910;20.390;2023-03-14T01:56:28;98665.72;;;4.48
62845;BMP280;48929;47.910;20.390;2023-03-14T01:59:22;98660.91;;;4.51
62845;BMP280;48929;47.910;20.390;2023-03-14T02:02:25;98636.09;;;4.37
62845;BMP280;48929;47.910;20.390;2023-03-14T02:06:33;98658.88;;;4.53
62845;BMP280;48929;47.910;20.390;2023-03-14T02:09:30;98648.66;;;4.53
62845;BMP280;48929;47.910;20.390;2023-03-14T02:12:38;98645.34;;;4.58
62845;BMP280;48929;47.910;20.390;2023-03-14T02:20:24;98619.78;;;4.48
62845;BMP280;48929;47.910;20.390;2023-03-14T02:23:57;98624.66;;;4.49
62845;BMP280;48929;47.910;20.390;2023-03-14T02:30:01;98642.28;;;4.56
62845;BMP280;48929;47.910;20.390;2023-03-14T02:33:08;98635.16;;;4.58
62845;BMP280;48929;47.910;20.390;2023-03-14T02:36:21;98620.88;;;4.62
62845;BMP280;48929;47.910;20.390;2023-03-14T02:39:29;98620.16;;;4.67
62845;BMP280;48929;47.910;20.390;2023-03-14T02:42:36;98594.06;;;4.54
62845;BMP280;48929;47.910;20.390;2023-03-14T02:56:47;98611.44;;;4.63
62845;BMP280;48929;47.910;20.390;2023-03-14T03:00:04;98615.53;;;4.64
62845;BMP280;48929;47.910;20.390;2023-03-14T03:03:02;98599.19;;;4.54
62845;BMP280;48929;47.910;20.390;2023-03-14T03:06:05;98610.16;;;4.60
62845;BMP280;48929;47.910;20.390;2023-03-14T03:09:25;98606.31;;;4.57
62845;BMP280;48929;47.910;20.390;2023-03-14T03:12:30;98609.38;;;4.54
62845;BMP280;48929;47.910;20.390;2023-03-14T03:15:51;98570.25;;;4.34
62845;BMP280;48929;47.910;20.390;2023-03-14T03:19:11;98582.53;;;4.37
62845;BMP280;48929;47.910;20.390;2023-03-14T03:22:03;98591.50;;;4.49
62845;BMP280;48929;47.910;20.390;2023-03-14T03:24:57;98558.53;;;4.33
62845;BMP280;48929;47.910;20.390;2023-03-14T03:28:16;98585.44;;;4.66
62845;BMP280;48929;47.910;20.390;2023-03-14T03:31:37;98571.66;;;4.67
62845;BMP280;48929;47.910;20.390;2023-03-14T03:34:26;98572.69;;;4.76
62845;BMP280;48929;47.910;20.390;2023-03-14T03:37:24;98553.34;;;4.85
62845;BMP280;48929;47.910;20.390;2023-03-14T03:41:13;98526.78;;;4.81
62845;BMP280;48929;47.910;20.390;2023-03-14T03:44:32;98537.28;;;5.10
62845;BMP280;48929;47.910;20.390;2023-03-14T03:48:06;98509.47;;;5.03
62845;BMP280;48929;47.910;20.390;2023-03-14T03:51:22;98526.06;;;5.11
62845;BMP280;48929;47.910;20.390;2023-03-14T03:54:13;98508.69;;;5.03
62845;BMP280;48929;47.910;20.390;2023-03-14T03:57:05;98507.38;;;4.95
62845;BMP280;48929;47.910;20.390;2023-03-14T04:04:06;98490.03;;;4.82
62845;BMP280;48929;47.910;20.390;2023-03-14T04:07:07;98500.03;;;5.09
62845;BMP280;48929;47.910;20.390;2023-03-14T04:10:22;98461.19;;;5.12
62845;BMP280;48929;47.910;20.390;2023-03-14T04:13:55;98464.25;;;5.34
62845;BMP280;48929;47.910;20.390;2023-03-14T04:16:41;98462.22;;;5.41
62845;BMP280;48929;47.910;20.390;2023-03-14T04:19:10;98496.41;;;5.70
62845;BMP280;48929;47.910;20.390;2023-03-14T04:26:12;98473.59;;;5.74
62845;BMP280;48929;47.910;20.390;2023-03-14T04:33:04;98486.28;;;6.09
62845;BMP280;48929;47.910;20.390;2023-03-14T04:36:35;98451.84;;;5.92
62845;BMP280;48929;47.910;20.390;2023-03-14T04:40:04;98481.16;;;6.09
62845;BMP280;48929;47.910;20.390;2023-03-14T04:43:53;98490.56;;;6.24
62845;BMP280;48929;47.910;20.390;2023-03-14T04:47:02;98473.72;;;6.18
62845;BMP280;48929;47.910;20.390;2023-03-14T04:53:35;98448.44;;;6.12
62845;BMP280;48929;47.910;20.390;2023-03-14T04:56:55;98461.94;;;6.22
62845;BMP280;48929;47.910;20.390;2023-03-14T05:00:10;98463.66;;;6.32
62845;BMP280;48929;47.910;20.390;2023-03-14T05:04:24;98440.72;;;6.17
62845;BMP280;48929;47.910;20.390;2023-03-14T05:07:29;98462.63;;;6.33
62845;BMP280;48929;47.910;20.390;2023-03-14T05:10:31;98439.69;;;6.18
62845;BMP280;48929;47.910;20.390;2023-03-14T05:14:07;98471.56;;;6.40
62845;BMP280;48929;47.910;20.390;2023-03-14T05:17:24;98464.16;;;6.39
62845;BMP280;48929;47.910;20.390;2023-03-14T05:20:39;98466.72;;;6.34
62845;BMP280;48929;47.910;20.390;2023-03-14T05:23:56;98486.88;;;6.45
62845;BMP280;48929;47.910;20.390;2023-03-14T05:27:57;98477.66;;;6.44
62845;BMP280;48929;47.910;20.390;2023-03-14T05:31:25;98469.28;;;6.39
62845;BMP280;48929;47.910;20.390;2023-03-14T05:34:42;98467.47;;;6.39
62845;BMP280;48929;47.910;20.390;2023-03-14T05:41:51;98464.13;;;6.44
62845;BMP280;48929;47.910;20.390;2023-03-14T06:01:07;98447.13;;;6.58
62845;BMP280;48929;47.910;20.390;2023-03-14T06:04:47;98435.56;;;6.66
62845;BMP280;48929;47.910;20.390;2023-03-14T06:08:51;98453.56;;;6.90
62845;BMP280;48929;47.910;20.390;2023-03-14T06:13:10;98432.84;;;6.86
62845;BMP280;48929;47.910;20.390;2023-03-14T06:16:56;98434.06;;;6.94
62845;BMP280;48929;47.910;20.390;2023-03-14T06:21:10;98453.16;;;7.06
62845;BMP280;48929;47.910;20.390;2023-03-14T06:28:30;98458.47;;;7.15
62845;BMP280;48929;47.910;20.390;2023-03-14T06:48:15;98411.06;;;7.41
62845;BMP280;48929;47.910;20.390;2023-03-14T06:51:43;98447.13;;;7.69
62845;BMP280;48929;47.910;20.390;2023-03-14T06:55:28;98408.56;;;7.55
